EKKA

Karup/Midtjyllands Airport

Airport
ICAO code
EKKA
IATA Code
KRP
Summary
ICAO Region
EUR
ICAO Territory
Location

Viborg, Jutland

Serving
Karup
Elevation
170 ft
Coordinates
56° 17' 54" N , 9° 6' 29" E
KCC
Metar
Observation
EKKA 291735Z AUTO 06003KT 5000 -RA BKN019/// BKN052/// OVC083/// 04/03 Q1023 TEMPO 4000 -RADZ BKN012
Station
Karup
Date/Time
2022-11-29 17:35:00
Wind direction
60°
Wind speed
03 kts
Lowest cloud amount
broken clouds
Temperature
4°C
Dew point
3°C
Humidity
93%
QNH
1023 hPa
Weather condition
n/a

Midtjyllands Airport, formerly known as Karup Airport, is an airport in Denmark.

Climatology

Oceanic climate (Köppen climate classification Cfb)

Runways

Designator Length Width Surface Rops
14/32 700 18 PEM Yes/Yes
9/27 850 60 GRS No/No
4/22 895 15 PEM Yes/Yes
09R/27L 2928 46 PEM Yes/Yes
09L/27R 2992 23 ASP Yes/Yes

Airport map

Aerial View

Airport accidents

SKYbrary Partners:

Safety knowledge contributed by: